sensor_id;sensor_type;location;lat;lon;timestamp;P1;durP1;ratioP1;P2;durP2;ratioP2
14619;SDS011;32125;48.518;9.050;2022-12-18T00:01:27;62.70;;;27.70;;
14619;SDS011;32125;48.518;9.050;2022-12-18T00:03:54;61.03;;;26.53;;
14619;SDS011;32125;48.518;9.050;2022-12-18T00:06:26;56.60;;;25.13;;
14619;SDS011;32125;48.518;9.050;2022-12-18T00:08:52;70.53;;;28.70;;
14619;SDS011;32125;48.518;9.050;2022-12-18T00:11:19;64.33;;;28.10;;
14619;SDS011;32125;48.518;9.050;2022-12-18T00:13:47;63.53;;;26.87;;
14619;SDS011;32125;48.518;9.050;2022-12-18T00:16:14;58.43;;;26.50;;
14619;SDS011;32125;48.518;9.050;2022-12-18T00:18:41;57.17;;;26.53;;
14619;SDS011;32125;48.518;9.050;2022-12-18T00:21:08;58.33;;;26.10;;
14619;SDS011;32125;48.518;9.050;2022-12-18T00:23:38;63.97;;;27.10;;
14619;SDS011;32125;48.518;9.050;2022-12-18T00:26:06;66.83;;;29.57;;
14619;SDS011;32125;48.518;9.050;2022-12-18T00:28:41;64.97;;;27.53;;
14619;SDS011;32125;48.518;9.050;2022-12-18T00:31:11;62.57;;;28.53;;
14619;SDS011;32125;48.518;9.050;2022-12-18T00:33:37;65.53;;;28.50;;
14619;SDS011;32125;48.518;9.050;2022-12-18T00:36:05;62.47;;;27.90;;
14619;SDS011;32125;48.518;9.050;2022-12-18T00:38:33;60.83;;;28.10;;
14619;SDS011;32125;48.518;9.050;2022-12-18T00:40:59;62.00;;;28.43;;
14619;SDS011;32125;48.518;9.050;2022-12-18T00:43:25;68.47;;;29.47;;
14619;SDS011;32125;48.518;9.050;2022-12-18T00:45:52;62.03;;;28.53;;
14619;SDS011;32125;48.518;9.050;2022-12-18T00:48:23;68.07;;;29.27;;
14619;SDS011;32125;48.518;9.050;2022-12-18T00:50:49;64.03;;;29.60;;
14619;SDS011;32125;48.518;9.050;2022-12-18T00:53:16;69.13;;;30.77;;
14619;SDS011;32125;48.518;9.050;2022-12-18T00:55:44;72.50;;;31.77;;
14619;SDS011;32125;48.518;9.050;2022-12-18T00:58:10;62.73;;;30.77;;
14619;SDS011;32125;48.518;9.050;2022-12-18T01:00:39;78.30;;;31.33;;
14619;SDS011;32125;48.518;9.050;2022-12-18T01:03:06;73.43;;;31.83;;
14619;SDS011;32125;48.518;9.050;2022-12-18T01:05:31;73.70;;;30.83;;
14619;SDS011;32125;48.518;9.050;2022-12-18T01:07:57;67.43;;;30.43;;
14619;SDS011;32125;48.518;9.050;2022-12-18T01:10:24;70.80;;;30.07;;
14619;SDS011;32125;48.518;9.050;2022-12-18T01:12:51;75.63;;;32.03;;
14619;SDS011;32125;48.518;9.050;2022-12-18T01:15:17;83.63;;;32.20;;
14619;SDS011;32125;48.518;9.050;2022-12-18T01:17:44;67.83;;;30.93;;
14619;SDS011;32125;48.518;9.050;2022-12-18T01:20:11;81.27;;;32.80;;
14619;SDS011;32125;48.518;9.050;2022-12-18T01:22:37;69.13;;;30.57;;
14619;SDS011;32125;48.518;9.050;2022-12-18T01:25:04;70.87;;;30.07;;
14619;SDS011;32125;48.518;9.050;2022-12-18T01:27:30;76.70;;;30.97;;
14619;SDS011;32125;48.518;9.050;2022-12-18T01:29:56;73.23;;;30.13;;
14619;SDS011;32125;48.518;9.050;2022-12-18T01:32:22;72.63;;;30.37;;
14619;SDS011;32125;48.518;9.050;2022-12-18T01:34:48;72.53;;;29.70;;
14619;SDS011;32125;48.518;9.050;2022-12-18T01:37:14;73.23;;;30.50;;
14619;SDS011;32125;48.518;9.050;2022-12-18T01:39:40;72.67;;;31.50;;
14619;SDS011;32125;48.518;9.050;2022-12-18T01:42:13;75.53;;;31.00;;
14619;SDS011;32125;48.518;9.050;2022-12-18T01:52:56;69.77;;;30.53;;
14619;SDS011;32125;48.518;9.050;2022-12-18T01:55:30;66.90;;;28.77;;
14619;SDS011;32125;48.518;9.050;2022-12-18T01:58:01;64.77;;;28.37;;
14619;SDS011;32125;48.518;9.050;2022-12-18T02:00:27;68.13;;;28.87;;
14619;SDS011;32125;48.518;9.050;2022-12-18T02:02:55;72.93;;;30.17;;
14619;SDS011;32125;48.518;9.050;2022-12-18T02:11:10;73.23;;;29.10;;
14619;SDS011;32125;48.518;9.050;2022-12-18T02:18:41;65.70;;;29.37;;
14619;SDS011;32125;48.518;9.050;2022-12-18T02:21:25;83.57;;;29.50;;
14619;SDS011;32125;48.518;9.050;2022-12-18T02:26:28;66.90;;;28.27;;
14619;SDS011;32125;48.518;9.050;2022-12-18T02:31:26;68.27;;;29.97;;
14619;SDS011;32125;48.518;9.050;2022-12-18T02:34:02;81.73;;;30.67;;
14619;SDS011;32125;48.518;9.050;2022-12-18T02:36:30;76.00;;;30.40;;
14619;SDS011;32125;48.518;9.050;2022-12-18T02:38:57;73.67;;;30.23;;
14619;SDS011;32125;48.518;9.050;2022-12-18T02:41:27;68.13;;;29.37;;
14619;SDS011;32125;48.518;9.050;2022-12-18T02:43:58;69.30;;;29.47;;
14619;SDS011;32125;48.518;9.050;2022-12-18T02:51:53;71.37;;;29.27;;
14619;SDS011;32125;48.518;9.050;2022-12-18T02:57:04;61.27;;;27.90;;
14619;SDS011;32125;48.518;9.050;2022-12-18T02:59:39;62.87;;;27.40;;
14619;SDS011;32125;48.518;9.050;2022-12-18T03:04:49;71.70;;;28.33;;
14619;SDS011;32125;48.518;9.050;2022-12-18T03:08:00;66.77;;;28.13;;
14619;SDS011;32125;48.518;9.050;2022-12-18T03:10:21;71.47;;;29.67;;
14619;SDS011;32125;48.518;9.050;2022-12-18T03:12:52;59.60;;;27.17;;
14619;SDS011;32125;48.518;9.050;2022-12-18T03:15:31;63.83;;;27.17;;
14619;SDS011;32125;48.518;9.050;2022-12-18T03:18:08;65.40;;;27.67;;
14619;SDS011;32125;48.518;9.050;2022-12-18T03:20:42;63.20;;;26.50;;
14619;SDS011;32125;48.518;9.050;2022-12-18T03:23:13;58.37;;;26.37;;
14619;SDS011;32125;48.518;9.050;2022-12-18T03:25:42;63.83;;;27.60;;
14619;SDS011;32125;48.518;9.050;2022-12-18T03:28:12;64.70;;;28.43;;
14619;SDS011;32125;48.518;9.050;2022-12-18T03:30:40;67.40;;;29.00;;
14619;SDS011;32125;48.518;9.050;2022-12-18T03:33:13;65.23;;;27.63;;
14619;SDS011;32125;48.518;9.050;2022-12-18T03:35:44;66.43;;;27.43;;
14619;SDS011;32125;48.518;9.050;2022-12-18T03:38:10;64.57;;;28.17;;
14619;SDS011;32125;48.518;9.050;2022-12-18T03:48:55;66.40;;;27.70;;
14619;SDS011;32125;48.518;9.050;2022-12-18T03:53:55;69.43;;;28.20;;
14619;SDS011;32125;48.518;9.050;2022-12-18T03:56:29;73.10;;;29.60;;
14619;SDS011;32125;48.518;9.050;2022-12-18T03:59:00;63.53;;;27.27;;
14619;SDS011;32125;48.518;9.050;2022-12-18T04:01:39;69.33;;;28.63;;
14619;SDS011;32125;48.518;9.050;2022-12-18T04:04:08;75.00;;;28.27;;
14619;SDS011;32125;48.518;9.050;2022-12-18T04:06:37;79.07;;;30.57;;
14619;SDS011;32125;48.518;9.050;2022-12-18T04:09:05;72.10;;;29.10;;
14619;SDS011;32125;48.518;9.050;2022-12-18T04:11:31;78.67;;;31.33;;
14619;SDS011;32125;48.518;9.050;2022-12-18T04:13:57;78.23;;;31.00;;
14619;SDS011;32125;48.518;9.050;2022-12-18T04:16:24;68.57;;;29.00;;
14619;SDS011;32125;48.518;9.050;2022-12-18T04:18:55;80.63;;;30.47;;
14619;SDS011;32125;48.518;9.050;2022-12-18T04:21:21;73.97;;;30.17;;
14619;SDS011;32125;48.518;9.050;2022-12-18T04:23:47;70.40;;;29.90;;
14619;SDS011;32125;48.518;9.050;2022-12-18T04:26:13;84.47;;;30.03;;
14619;SDS011;32125;48.518;9.050;2022-12-18T04:28:40;83.40;;;31.40;;
14619;SDS011;32125;48.518;9.050;2022-12-18T04:31:07;88.03;;;31.57;;
14619;SDS011;32125;48.518;9.050;2022-12-18T04:33:32;89.07;;;30.57;;
14619;SDS011;32125;48.518;9.050;2022-12-18T04:35:58;78.57;;;31.13;;
14619;SDS011;32125;48.518;9.050;2022-12-18T04:38:24;78.77;;;32.47;;
14619;SDS011;32125;48.518;9.050;2022-12-18T04:40:52;82.60;;;31.77;;
14619;SDS011;32125;48.518;9.050;2022-12-18T04:43:18;89.17;;;31.13;;
14619;SDS011;32125;48.518;9.050;2022-12-18T04:45:44;86.97;;;31.50;;
14619;SDS011;32125;48.518;9.050;2022-12-18T04:48:10;79.30;;;29.87;;
14619;SDS011;32125;48.518;9.050;2022-12-18T04:50:38;95.00;;;32.50;;
14619;SDS011;32125;48.518;9.050;2022-12-18T04:53:04;93.67;;;32.40;;
14619;SDS011;32125;48.518;9.050;2022-12-18T04:55:32;87.73;;;31.47;;
14619;SDS011;32125;48.518;9.050;2022-12-18T04:57:58;97.93;;;31.83;;
14619;SDS011;32125;48.518;9.050;2022-12-18T05:00:24;84.93;;;30.73;;
14619;SDS011;32125;48.518;9.050;2022-12-18T05:02:50;89.47;;;33.73;;
14619;SDS011;32125;48.518;9.050;2022-12-18T05:05:16;88.73;;;33.97;;
14619;SDS011;32125;48.518;9.050;2022-12-18T05:07:42;101.20;;;35.63;;
14619;SDS011;32125;48.518;9.050;2022-12-18T05:10:09;87.00;;;33.00;;
14619;SDS011;32125;48.518;9.050;2022-12-18T05:12:35;86.23;;;30.73;;
14619;SDS011;32125;48.518;9.050;2022-12-18T05:15:21;87.83;;;31.87;;
14619;SDS011;32125;48.518;9.050;2022-12-18T05:17:47;94.90;;;31.30;;
14619;SDS011;32125;48.518;9.050;2022-12-18T05:20:13;89.20;;;31.07;;
14619;SDS011;32125;48.518;9.050;2022-12-18T05:22:39;92.37;;;32.50;;
14619;SDS011;32125;48.518;9.050;2022-12-18T05:25:05;82.60;;;30.87;;
14619;SDS011;32125;48.518;9.050;2022-12-18T05:27:30;93.30;;;32.17;;
14619;SDS011;32125;48.518;9.050;2022-12-18T05:29:56;85.70;;;31.57;;
14619;SDS011;32125;48.518;9.050;2022-12-18T05:32:22;97.40;;;32.20;;
14619;SDS011;32125;48.518;9.050;2022-12-18T05:34:48;89.13;;;31.20;;
14619;SDS011;32125;48.518;9.050;2022-12-18T05:37:14;88.20;;;32.03;;
14619;SDS011;32125;48.518;9.050;2022-12-18T05:39:42;92.73;;;31.73;;
14619;SDS011;32125;48.518;9.050;2022-12-18T05:42:08;68.17;;;28.57;;
14619;SDS011;32125;48.518;9.050;2022-12-18T05:44:37;78.73;;;30.90;;
14619;SDS011;32125;48.518;9.050;2022-12-18T05:47:03;73.37;;;29.57;;
14619;SDS011;32125;48.518;9.050;2022-12-18T05:49:29;85.63;;;31.50;;
14619;SDS011;32125;48.518;9.050;2022-12-18T05:51:55;78.23;;;30.07;;
14619;SDS011;32125;48.518;9.050;2022-12-18T05:54:21;85.47;;;30.53;;
14619;SDS011;32125;48.518;9.050;2022-12-18T05:56:47;74.23;;;30.03;;
14619;SDS011;32125;48.518;9.050;2022-12-18T05:59:13;76.90;;;29.90;;
14619;SDS011;32125;48.518;9.050;2022-12-18T06:01:41;92.43;;;29.67;;
14619;SDS011;32125;48.518;9.050;2022-12-18T06:04:08;83.80;;;29.53;;
14619;SDS011;32125;48.518;9.050;2022-12-18T06:06:34;86.37;;;30.87;;
14619;SDS011;32125;48.518;9.050;2022-12-18T06:09:00;93.07;;;30.93;;
14619;SDS011;32125;48.518;9.050;2022-12-18T06:11:33;89.33;;;30.47;;
14619;SDS011;32125;48.518;9.050;2022-12-18T06:14:01;85.87;;;29.93;;
14619;SDS011;32125;48.518;9.050;2022-12-18T06:16:30;81.67;;;29.67;;
14619;SDS011;32125;48.518;9.050;2022-12-18T06:18:56;76.87;;;30.63;;
14619;SDS011;32125;48.518;9.050;2022-12-18T06:21:23;80.00;;;30.10;;
14619;SDS011;32125;48.518;9.050;2022-12-18T06:23:49;74.83;;;28.93;;
14619;SDS011;32125;48.518;9.050;2022-12-18T06:26:15;77.60;;;28.80;;
14619;SDS011;32125;48.518;9.050;2022-12-18T06:28:41;70.73;;;27.07;;
14619;SDS011;32125;48.518;9.050;2022-12-18T06:31:07;65.17;;;26.60;;
14619;SDS011;32125;48.518;9.050;2022-12-18T06:33:34;63.17;;;26.87;;
14619;SDS011;32125;48.518;9.050;2022-12-18T06:36:04;67.00;;;26.47;;
14619;SDS011;32125;48.518;9.050;2022-12-18T06:38:32;69.00;;;27.47;;
14619;SDS011;32125;48.518;9.050;2022-12-18T06:41:00;64.90;;;26.50;;
14619;SDS011;32125;48.518;9.050;2022-12-18T06:43:31;72.77;;;27.27;;
14619;SDS011;32125;48.518;9.050;2022-12-18T06:46:00;79.60;;;28.57;;
14619;SDS011;32125;48.518;9.050;2022-12-18T06:48:27;76.17;;;27.70;;
14619;SDS011;32125;48.518;9.050;2022-12-18T06:50:53;72.27;;;29.73;;
14619;SDS011;32125;48.518;9.050;2022-12-18T06:53:19;69.50;;;28.17;;
14619;SDS011;32125;48.518;9.050;2022-12-18T06:55:45;77.37;;;28.13;;
14619;SDS011;32125;48.518;9.050;2022-12-18T06:58:11;79.80;;;29.13;;
14619;SDS011;32125;48.518;9.050;2022-12-18T07:00:37;86.00;;;28.83;;
14619;SDS011;32125;48.518;9.050;2022-12-18T07:21:41;66.87;;;26.80;;
14619;SDS011;32125;48.518;9.050;2022-12-18T07:24:08;63.07;;;26.17;;
14619;SDS011;32125;48.518;9.050;2022-12-18T07:26:34;64.57;;;26.27;;
14619;SDS011;32125;48.518;9.050;2022-12-18T07:29:00;65.63;;;26.83;;
14619;SDS011;32125;48.518;9.050;2022-12-18T07:31:26;64.47;;;26.77;;
14619;SDS011;32125;48.518;9.050;2022-12-18T07:33:55;70.93;;;27.40;;
14619;SDS011;32125;48.518;9.050;2022-12-18T07:36:23;68.60;;;27.00;;
14619;SDS011;32125;48.518;9.050;2022-12-18T07:38:52;74.00;;;28.63;;
14619;SDS011;32125;48.518;9.050;2022-12-18T07:41:18;67.77;;;27.93;;
14619;SDS011;32125;48.518;9.050;2022-12-18T07:43:44;74.27;;;28.43;;
14619;SDS011;32125;48.518;9.050;2022-12-18T07:46:10;60.67;;;25.37;;
14619;SDS011;32125;48.518;9.050;2022-12-18T07:48:38;63.87;;;25.00;;
14619;SDS011;32125;48.518;9.050;2022-12-18T07:51:05;61.63;;;25.90;;
14619;SDS011;32125;48.518;9.050;2022-12-18T07:53:32;55.63;;;24.40;;
14619;SDS011;32125;48.518;9.050;2022-12-18T07:56:00;59.43;;;24.00;;
14619;SDS011;32125;48.518;9.050;2022-12-18T07:58:27;63.27;;;24.33;;
14619;SDS011;32125;48.518;9.050;2022-12-18T08:00:54;45.47;;;22.23;;
14619;SDS011;32125;48.518;9.050;2022-12-18T08:03:19;54.00;;;22.97;;
14619;SDS011;32125;48.518;9.050;2022-12-18T08:05:45;52.83;;;22.27;;
14619;SDS011;32125;48.518;9.050;2022-12-18T08:08:11;50.83;;;22.47;;
14619;SDS011;32125;48.518;9.050;2022-12-18T08:10:37;47.83;;;23.00;;
14619;SDS011;32125;48.518;9.050;2022-12-18T08:13:04;52.07;;;23.50;;
14619;SDS011;32125;48.518;9.050;2022-12-18T08:15:32;52.80;;;23.10;;
14619;SDS011;32125;48.518;9.050;2022-12-18T08:17:58;53.53;;;23.20;;
14619;SDS011;32125;48.518;9.050;2022-12-18T08:20:27;52.97;;;22.70;;
14619;SDS011;32125;48.518;9.050;2022-12-18T08:22:53;54.27;;;23.57;;
14619;SDS011;32125;48.518;9.050;2022-12-18T08:25:19;51.27;;;23.07;;
14619;SDS011;32125;48.518;9.050;2022-12-18T08:27:45;53.60;;;23.50;;
14619;SDS011;32125;48.518;9.050;2022-12-18T08:30:13;56.60;;;25.50;;
14619;SDS011;32125;48.518;9.050;2022-12-18T08:32:39;52.07;;;24.10;;
14619;SDS011;32125;48.518;9.050;2022-12-18T08:35:05;56.50;;;24.57;;
14619;SDS011;32125;48.518;9.050;2022-12-18T08:37:32;56.33;;;24.50;;
14619;SDS011;32125;48.518;9.050;2022-12-18T08:39:58;57.97;;;24.20;;
14619;SDS011;32125;48.518;9.050;2022-12-18T08:42:24;58.30;;;24.33;;
14619;SDS011;32125;48.518;9.050;2022-12-18T08:45:09;50.87;;;22.53;;
14619;SDS011;32125;48.518;9.050;2022-12-18T08:47:35;57.83;;;25.53;;
14619;SDS011;32125;48.518;9.050;2022-12-18T08:50:01;57.13;;;25.07;;
14619;SDS011;32125;48.518;9.050;2022-12-18T08:52:27;57.93;;;26.03;;
14619;SDS011;32125;48.518;9.050;2022-12-18T08:54:53;55.93;;;23.30;;
14619;SDS011;32125;48.518;9.050;2022-12-18T08:57:19;58.10;;;24.93;;
14619;SDS011;32125;48.518;9.050;2022-12-18T08:59:47;52.77;;;24.77;;
14619;SDS011;32125;48.518;9.050;2022-12-18T09:02:13;57.27;;;24.17;;
14619;SDS011;32125;48.518;9.050;2022-12-18T09:04:39;52.37;;;23.70;;
14619;SDS011;32125;48.518;9.050;2022-12-18T09:07:05;58.47;;;25.57;;
14619;SDS011;32125;48.518;9.050;2022-12-18T09:09:31;52.27;;;24.60;;
14619;SDS011;32125;48.518;9.050;2022-12-18T09:11:57;57.77;;;24.03;;
14619;SDS011;32125;48.518;9.050;2022-12-18T09:14:25;59.20;;;25.00;;
14619;SDS011;32125;48.518;9.050;2022-12-18T09:16:51;55.53;;;24.97;;
14619;SDS011;32125;48.518;9.050;2022-12-18T09:19:17;53.77;;;23.93;;
14619;SDS011;32125;48.518;9.050;2022-12-18T09:21:43;50.27;;;23.90;;
14619;SDS011;32125;48.518;9.050;2022-12-18T09:24:11;55.67;;;24.03;;
14619;SDS011;32125;48.518;9.050;2022-12-18T09:26:38;50.03;;;22.93;;
14619;SDS011;32125;48.518;9.050;2022-12-18T09:29:04;57.90;;;24.67;;
14619;SDS011;32125;48.518;9.050;2022-12-18T09:31:32;54.57;;;25.53;;
14619;SDS011;32125;48.518;9.050;2022-12-18T09:33:58;58.03;;;25.80;;
14619;SDS011;32125;48.518;9.050;2022-12-18T09:36:26;48.90;;;24.00;;
14619;SDS011;32125;48.518;9.050;2022-12-18T09:38:52;50.30;;;24.37;;
14619;SDS011;32125;48.518;9.050;2022-12-18T09:41:33;56.07;;;24.90;;
14619;SDS011;32125;48.518;9.050;2022-12-18T09:44:01;52.83;;;24.03;;
14619;SDS011;32125;48.518;9.050;2022-12-18T09:46:36;50.37;;;25.00;;
14619;SDS011;32125;48.518;9.050;2022-12-18T09:49:05;53.20;;;25.37;;
14619;SDS011;32125;48.518;9.050;2022-12-18T09:51:35;54.67;;;24.73;;
14619;SDS011;32125;48.518;9.050;2022-12-18T09:54:20;54.03;;;25.60;;
14619;SDS011;32125;48.518;9.050;2022-12-18T09:56:53;57.77;;;26.03;;
14619;SDS011;32125;48.518;9.050;2022-12-18T10:01:48;51.60;;;24.50;;
14619;SDS011;32125;48.518;9.050;2022-12-18T10:04:14;50.57;;;24.50;;
14619;SDS011;32125;48.518;9.050;2022-12-18T10:06:49;53.50;;;24.87;;
14619;SDS011;32125;48.518;9.050;2022-12-18T10:10:07;52.40;;;25.70;;
14619;SDS011;32125;48.518;9.050;2022-12-18T10:12:55;56.03;;;25.53;;
14619;SDS011;32125;48.518;9.050;2022-12-18T10:15:24;52.77;;;24.30;;
14619;SDS011;32125;48.518;9.050;2022-12-18T10:20:45;47.13;;;24.83;;
14619;SDS011;32125;48.518;9.050;2022-12-18T10:28:08;50.47;;;24.33;;
14619;SDS011;32125;48.518;9.050;2022-12-18T10:30:38;48.17;;;23.97;;
14619;SDS011;32125;48.518;9.050;2022-12-18T10:33:04;41.87;;;24.00;;
14619;SDS011;32125;48.518;9.050;2022-12-18T10:35:33;43.23;;;22.93;;
14619;SDS011;32125;48.518;9.050;2022-12-18T10:40:29;43.40;;;24.23;;
14619;SDS011;32125;48.518;9.050;2022-12-18T10:45:30;44.77;;;24.13;;
14619;SDS011;32125;48.518;9.050;2022-12-18T10:47:56;44.70;;;25.30;;
14619;SDS011;32125;48.518;9.050;2022-12-18T10:52:57;44.87;;;25.83;;
14619;SDS011;32125;48.518;9.050;2022-12-18T10:55:24;47.33;;;26.93;;
14619;SDS011;32125;48.518;9.050;2022-12-18T11:01:01;45.47;;;26.40;;
14619;SDS011;32125;48.518;9.050;2022-12-18T11:03:58;48.43;;;25.93;;
14619;SDS011;32125;48.518;9.050;2022-12-18T11:06:27;48.43;;;27.17;;
14619;SDS011;32125;48.518;9.050;2022-12-18T11:09:03;52.97;;;28.00;;
14619;SDS011;32125;48.518;9.050;2022-12-18T11:11:31;48.07;;;27.47;;
14619;SDS011;32125;48.518;9.050;2022-12-18T11:14:11;49.47;;;28.23;;
14619;SDS011;32125;48.518;9.050;2022-12-18T11:16:48;45.93;;;26.93;;
14619;SDS011;32125;48.518;9.050;2022-12-18T11:21:51;45.40;;;29.03;;
14619;SDS011;32125;48.518;9.050;2022-12-18T11:26:58;50.13;;;27.53;;
14619;SDS011;32125;48.518;9.050;2022-12-18T11:29:33;49.73;;;27.57;;
14619;SDS011;32125;48.518;9.050;2022-12-18T11:34:48;45.70;;;28.17;;
14619;SDS011;32125;48.518;9.050;2022-12-18T11:37:19;45.63;;;27.30;;
14619;SDS011;32125;48.518;9.050;2022-12-18T11:39:46;45.53;;;27.07;;
14619;SDS011;32125;48.518;9.050;2022-12-18T11:50:12;49.83;;;28.07;;
14619;SDS011;32125;48.518;9.050;2022-12-18T11:52:48;47.10;;;28.23;;
14619;SDS011;32125;48.518;9.050;2022-12-18T11:55:15;48.33;;;27.40;;
14619;SDS011;32125;48.518;9.050;2022-12-18T11:57:58;48.70;;;29.67;;
14619;SDS011;32125;48.518;9.050;2022-12-18T12:00:27;48.73;;;28.90;;
14619;SDS011;32125;48.518;9.050;2022-12-18T12:05:31;49.50;;;29.10;;
14619;SDS011;32125;48.518;9.050;2022-12-18T12:11:05;48.43;;;28.43;;
14619;SDS011;32125;48.518;9.050;2022-12-18T12:16:28;48.37;;;28.57;;
14619;SDS011;32125;48.518;9.050;2022-12-18T12:19:06;48.33;;;30.17;;
14619;SDS011;32125;48.518;9.050;2022-12-18T12:21:38;53.20;;;28.90;;
14619;SDS011;32125;48.518;9.050;2022-12-18T12:30:00;55.30;;;29.20;;
14619;SDS011;32125;48.518;9.050;2022-12-18T12:37:58;50.27;;;28.90;;
14619;SDS011;32125;48.518;9.050;2022-12-18T12:40:29;46.20;;;28.40;;
14619;SDS011;32125;48.518;9.050;2022-12-18T12:46:05;51.57;;;28.13;;
14619;SDS011;32125;48.518;9.050;2022-12-18T12:51:34;49.60;;;27.80;;
14619;SDS011;32125;48.518;9.050;2022-12-18T12:54:01;47.63;;;26.67;;
14619;SDS011;32125;48.518;9.050;2022-12-18T13:07:00;51.13;;;30.30;;
14619;SDS011;32125;48.518;9.050;2022-12-18T13:09:31;54.63;;;30.63;;
14619;SDS011;32125;48.518;9.050;2022-12-18T13:12:01;56.30;;;29.73;;
14619;SDS011;32125;48.518;9.050;2022-12-18T13:14:46;57.70;;;31.30;;
14619;SDS011;32125;48.518;9.050;2022-12-18T13:19:44;56.47;;;31.60;;
14619;SDS011;32125;48.518;9.050;2022-12-18T13:22:30;52.93;;;30.63;;
14619;SDS011;32125;48.518;9.050;2022-12-18T13:25:00;54.03;;;31.07;;
14619;SDS011;32125;48.518;9.050;2022-12-18T13:33:21;59.47;;;31.67;;
14619;SDS011;32125;48.518;9.050;2022-12-18T13:41:44;60.13;;;32.50;;
14619;SDS011;32125;48.518;9.050;2022-12-18T13:43:53;54.87;;;30.30;;
14619;SDS011;32125;48.518;9.050;2022-12-18T13:48:50;55.37;;;31.67;;
14619;SDS011;32125;48.518;9.050;2022-12-18T13:51:16;59.30;;;33.20;;
14619;SDS011;32125;48.518;9.050;2022-12-18T13:53:44;55.87;;;31.00;;
14619;SDS011;32125;48.518;9.050;2022-12-18T13:56:16;58.43;;;33.00;;
14619;SDS011;32125;48.518;9.050;2022-12-18T13:58:42;59.73;;;32.43;;
14619;SDS011;32125;48.518;9.050;2022-12-18T14:01:21;55.70;;;32.57;;
14619;SDS011;32125;48.518;9.050;2022-12-18T14:03:47;59.27;;;32.57;;
14619;SDS011;32125;48.518;9.050;2022-12-18T14:06:14;62.20;;;33.77;;
14619;SDS011;32125;48.518;9.050;2022-12-18T14:08:40;70.50;;;33.73;;
14619;SDS011;32125;48.518;9.050;2022-12-18T14:11:12;60.07;;;32.80;;
14619;SDS011;32125;48.518;9.050;2022-12-18T14:13:43;61.30;;;33.53;;
14619;SDS011;32125;48.518;9.050;2022-12-18T14:16:11;61.87;;;35.07;;
14619;SDS011;32125;48.518;9.050;2022-12-18T14:21:36;60.57;;;32.87;;
14619;SDS011;32125;48.518;9.050;2022-12-18T14:24:05;63.23;;;34.77;;
14619;SDS011;32125;48.518;9.050;2022-12-18T14:26:36;63.43;;;34.73;;
14619;SDS011;32125;48.518;9.050;2022-12-18T14:32:09;70.30;;;35.73;;
14619;SDS011;32125;48.518;9.050;2022-12-18T14:34:41;61.90;;;34.00;;
14619;SDS011;32125;48.518;9.050;2022-12-18T14:37:09;63.13;;;34.23;;
14619;SDS011;32125;48.518;9.050;2022-12-18T14:39:37;63.97;;;36.53;;
14619;SDS011;32125;48.518;9.050;2022-12-18T14:42:03;67.23;;;37.47;;
14619;SDS011;32125;48.518;9.050;2022-12-18T14:44:30;67.10;;;37.20;;
14619;SDS011;32125;48.518;9.050;2022-12-18T14:46:56;65.73;;;37.83;;
14619;SDS011;32125;48.518;9.050;2022-12-18T14:49:32;74.50;;;38.00;;
14619;SDS011;32125;48.518;9.050;2022-12-18T14:52:00;76.70;;;39.27;;
14619;SDS011;32125;48.518;9.050;2022-12-18T14:54:27;109.13;;;48.70;;
14619;SDS011;32125;48.518;9.050;2022-12-18T14:59:23;166.23;;;65.70;;
14619;SDS011;32125;48.518;9.050;2022-12-18T15:04:29;125.13;;;57.70;;
14619;SDS011;32125;48.518;9.050;2022-12-18T15:07:38;121.73;;;61.90;;
14619;SDS011;32125;48.518;9.050;2022-12-18T15:12:32;124.67;;;63.30;;
14619;SDS011;32125;48.518;9.050;2022-12-18T15:15:01;172.03;;;84.97;;
14619;SDS011;32125;48.518;9.050;2022-12-18T15:17:27;99.13;;;51.50;;
14619;SDS011;32125;48.518;9.050;2022-12-18T15:20:03;109.47;;;55.97;;
14619;SDS011;32125;48.518;9.050;2022-12-18T15:36:13;81.23;;;40.43;;
14619;SDS011;32125;48.518;9.050;2022-12-18T15:38:55;82.33;;;41.93;;
14619;SDS011;32125;48.518;9.050;2022-12-18T15:43:58;83.73;;;43.03;;
14619;SDS011;32125;48.518;9.050;2022-12-18T15:48:56;81.20;;;40.93;;
14619;SDS011;32125;48.518;9.050;2022-12-18T15:51:31;80.33;;;41.63;;
14619;SDS011;32125;48.518;9.050;2022-12-18T15:53:58;78.33;;;41.60;;
14619;SDS011;32125;48.518;9.050;2022-12-18T15:56:26;83.63;;;42.50;;
14619;SDS011;32125;48.518;9.050;2022-12-18T15:59:12;81.40;;;41.27;;
14619;SDS011;32125;48.518;9.050;2022-12-18T16:01:39;82.57;;;42.90;;
14619;SDS011;32125;48.518;9.050;2022-12-18T16:04:13;83.50;;;43.10;;
14619;SDS011;32125;48.518;9.050;2022-12-18T16:06:56;84.23;;;41.73;;
14619;SDS011;32125;48.518;9.050;2022-12-18T16:09:22;79.47;;;43.10;;
14619;SDS011;32125;48.518;9.050;2022-12-18T16:11:48;89.63;;;45.67;;
14619;SDS011;32125;48.518;9.050;2022-12-18T16:14:27;85.23;;;43.67;;
14619;SDS011;32125;48.518;9.050;2022-12-18T16:17:00;89.13;;;43.00;;
14619;SDS011;32125;48.518;9.050;2022-12-18T16:19:31;86.07;;;43.80;;
14619;SDS011;32125;48.518;9.050;2022-12-18T16:22:03;84.83;;;42.97;;
14619;SDS011;32125;48.518;9.050;2022-12-18T16:24:30;85.03;;;42.83;;
14619;SDS011;32125;48.518;9.050;2022-12-18T16:26:57;88.63;;;42.63;;
14619;SDS011;32125;48.518;9.050;2022-12-18T16:29:26;84.53;;;43.17;;
14619;SDS011;32125;48.518;9.050;2022-12-18T16:31:56;87.33;;;43.70;;
14619;SDS011;32125;48.518;9.050;2022-12-18T16:36:49;87.73;;;44.30;;
14619;SDS011;32125;48.518;9.050;2022-12-18T16:39:15;89.80;;;46.00;;
14619;SDS011;32125;48.518;9.050;2022-12-18T16:41:41;90.60;;;45.53;;
14619;SDS011;32125;48.518;9.050;2022-12-18T16:44:08;92.03;;;45.63;;
14619;SDS011;32125;48.518;9.050;2022-12-18T16:46:35;87.27;;;45.50;;
14619;SDS011;32125;48.518;9.050;2022-12-18T16:49:01;85.57;;;44.70;;
14619;SDS011;32125;48.518;9.050;2022-12-18T16:51:27;91.67;;;44.27;;
14619;SDS011;32125;48.518;9.050;2022-12-18T16:53:54;94.20;;;46.53;;
14619;SDS011;32125;48.518;9.050;2022-12-18T16:56:24;89.83;;;46.33;;
14619;SDS011;32125;48.518;9.050;2022-12-18T16:58:51;88.10;;;46.50;;
14619;SDS011;32125;48.518;9.050;2022-12-18T17:01:18;92.90;;;46.17;;
14619;SDS011;32125;48.518;9.050;2022-12-18T17:06:18;92.90;;;46.67;;
14619;SDS011;32125;48.518;9.050;2022-12-18T17:08:44;92.93;;;46.83;;
14619;SDS011;32125;48.518;9.050;2022-12-18T17:11:10;89.07;;;46.47;;
14619;SDS011;32125;48.518;9.050;2022-12-18T17:13:36;89.00;;;46.23;;
14619;SDS011;32125;48.518;9.050;2022-12-18T17:16:03;80.80;;;44.23;;
14619;SDS011;32125;48.518;9.050;2022-12-18T17:18:30;87.13;;;45.47;;
14619;SDS011;32125;48.518;9.050;2022-12-18T17:21:04;86.80;;;47.13;;
14619;SDS011;32125;48.518;9.050;2022-12-18T17:23:31;87.00;;;47.00;;
14619;SDS011;32125;48.518;9.050;2022-12-18T17:25:57;97.60;;;46.27;;
14619;SDS011;32125;48.518;9.050;2022-12-18T17:28:24;93.50;;;47.67;;
14619;SDS011;32125;48.518;9.050;2022-12-18T17:30:51;92.07;;;47.17;;
14619;SDS011;32125;48.518;9.050;2022-12-18T17:33:17;90.43;;;48.43;;
14619;SDS011;32125;48.518;9.050;2022-12-18T17:35:43;87.53;;;47.80;;
14619;SDS011;32125;48.518;9.050;2022-12-18T17:38:09;93.47;;;49.53;;
14619;SDS011;32125;48.518;9.050;2022-12-18T17:40:36;91.23;;;48.77;;
14619;SDS011;32125;48.518;9.050;2022-12-18T17:43:05;94.47;;;49.90;;